ADDS TAF Board (Experimental) INFO Settings
IDs: Format: Expanded Condensed

KIAH - Houston/Bush Intl, TX, US

Issued at 0859 UTC 29 Jul 2015
Updated at: 1128 UTC 29 Jul 2015
Time1053Z 29/12Z 29/13Z 29/14Z 29/15Z 29/16Z 29/17Z 29/18Z 29/19Z 29/20Z 29/21Z 29/22Z 29/23Z 30/00Z
Type OBS PRVL PRVL PRVL PRVL PRVL PRVL PRVL PRVL PRVL PRVL PRVL PRVL PRVL
VIS 8 >6 >6 >6 >6 >6 >6 >6 >6 >6 >6 >6 >6 >6
CIG -- 15 15 -- -- -- -- -- -- -- -- -- -- --
Cover SCT BKN BKN FEW FEW FEW FEW FEW FEW FEW SCT SCT SCT SCT
FltCat VFR MVFR MVFR VFR VFR VFR VFR VFR VFR VFR VFR VFR VFR VFR
WX -- -- -- -- -- -- -- -- -- -- -- -- -- --
WDir VRB VRB VRB VRB VRB VRB VRB VRB VRB VRB 190 190 190 190
WSpd 0 3 3 4 4 4 4 4 4 4 5 5 5 5
WGst -- -- -- -- -- -- -- -- -- -- -- -- -- --
R08/26
XWnd VRB VRB VRB VRB VRB VRB VRB VRB VRB VRB -5 -5 -5 -5
HWnd VRB VRB VRB VRB VRB VRB VRB VRB VRB VRB -1 -1 -1 -1
R09/27
XWnd VRB VRB VRB VRB VRB VRB VRB VRB VRB VRB -5 -5 -5 -5
HWnd VRB VRB VRB VRB VRB VRB VRB VRB VRB VRB -1 -1 -1 -1
R15/33
XWnd VRB VRB VRB VRB VRB VRB VRB VRB VRB VRB -3 -3 -3 -3
HWnd VRB VRB VRB VRB VRB VRB VRB VRB VRB VRB 4 4 4 4

NOTE: TEMPO conditions in [brackets]. Keep in mind TEMPO conditions might be better (lower impact) than prevailing conditions.

Raw TAF
KIAH 290859Z 2909/3012 00000KT P6SM FEW130 SCT250
  FM291200 VRB03KT P6SM FEW007 BKN015
  FM291400 VRB04KT P6SM FEW015
  FM292100 19005KT P6SM SCT070
  FM300200 VRB04KT P6SM FEW080
  FM301000 VRB03KT P6SM FEW050 FEW080


Raw METAR
KIAH 291053Z 00000KT 8SM FEW020 SCT250 25/24 A3001 RMK AO2 SLP160 T02500244 $
KIAH 290953Z 00000KT 8SM FEW130 SCT250 25/24 A2999 RMK AO2 SLP155 T02500244 $
KIAH 290853Z 00000KT 8SM FEW130 SCT250 27/25 A2999 RMK AO2 SLP155 T02670250 50000 $

METAR Board
Radar Display
Forecast Discussion

TAF Board Legend

Potential Impact
Threat None Slight Moderate High
Visibility (sm) ≥5.1 5.1>X≥3 3>X≥1 <1
Ceiling (100 ft) ≥30.1 30.1>X≥10 10>X≥5 <5
Wind Speed (kt) <10 10≤X<20 20≤X<30 ≥30
Wind Gust (kt) <15 15≤X<25 25≤X<35 ≥35
Weather No Wx Reported VCTS,-TS,-FZRA,SN TS,FZRA +TS,+FZRA,+SN